Latest Coastal Weather Observations for King Island Airport

IDT60701

Issued at 7:32 pm EST Wednesday 6 May 2026 (issued every 10 minutes, with the page automatically refreshed every 10 minutes)

About coastal observations | Map of coastal stations | Coastal observations for TAS | Marine services | Other Formats
Station Details ID: 098017 Name: KING ISLAND AIRPORT Lat: -39.88 Lon: 143.89 Height: 35.42 m
Data from the previous 72 hours. | See also: Recent months at King Island Airport
Date/Time
EST
Wind Sea
Height
m
Swell Vis
km
Cloud Weather Temp
°C
Press
MSL
hPa
Rain since
9am
mm
Dir  Spd
kts
Gust
kts
Height
m
Period
s
Dir
06/07:30pm WSW 21 29 - - - - 10 Partly cloudy - 10.4 1013.9 4.2
06/07:18pm WSW 22 32 - - - - 10 Partly cloudy - 9.4 1013.9 4.2
06/07:00pm WSW 21 29 - - - - 10 Partly cloudy - 10.3 1013.6 4.2
06/06:43pm WSW 22 32 - - - - 10 Mostly clear - 10.7 1013.5 4.2
06/06:30pm WSW 23 32 - - - - 10 Partly cloudy - 10.7 1013.4 4.2
06/06:05pm WSW 18 28 - - - - 10 Mostly clear - 10.6 1013.3 4.2
06/06:00pm WSW 18 26 - - - - 10 Cloudy Showers 10.4 1013.3 4.2
06/05:30pm WSW 17 27 - - - - 9 Partly cloudy - 10.5 1012.8 4.2
06/05:01pm WSW 21 31 - - - - 10 Mostly clear - 10.2 1012.9 4.0
06/05:00pm WSW 20 27 - - - - 10 Mostly clear - 10.2 1013.0 4.0
06/04:52pm WSW 17 27 - - - - 9 Mostly clear - 10.3 1013.1 3.8
06/04:30pm WSW 18 26 - - - - 10 Mostly clear - 10.5 1012.9 3.4
06/04:23pm WSW 20 30 - - - - 10 Partly cloudy - 10.5 1013.0 3.2
06/04:00pm WSW 19 28 - - - - 10 Partly cloudy - 11.1 1012.6 2.6
06/03:53pm WSW 21 31 - - - - 7 Mostly clear - 10.8 1012.7 2.6
06/03:48pm WSW 21 31 - - - - 8 Mostly clear - 10.9 1012.7 2.6
06/03:30pm WSW 23 33 - - - - 3 Mostly clear - 10.6 1012.5 2.4
06/03:00pm WSW 20 30 - - - - 2 Cloudy Rain 11.9 1012.1 1.8
06/02:54pm WSW 20 30 - - - - 4 Partly cloudy - 12.0 1012.0 1.4
06/02:48pm WSW 21 29 - - - - 3 Mostly clear - 11.9 1012.0 1.2
06/02:40pm W 23 29 - - - - 5 Partly cloudy - 12.2 1011.9 0.4
06/02:37pm WNW 24 29 - - - - 10 Mostly clear - 12.9 1012.0 0.2
06/02:30pm WNW 22 29 - - - - 10 Partly cloudy - 15.8 1011.5 0.0
06/02:00pm WNW 24 32 - - - - 10 Mostly clear - 15.8 1012.0 0.0
06/01:30pm WNW 25 32 - - - - 10 Mostly clear - 16.4 1012.5 0.0
06/01:00pm NW 26 32 - - - - 10 Mostly clear - 16.3 1013.1 0.0
06/12:35pm WNW 22 32 - - - - 10 Mostly clear - 15.5 1013.7 0.0
06/12:30pm WNW 24 32 - - - - 10 Mostly clear - 16.0 1013.8 0.0
06/12:00pm WNW 20 26 - - - - 10 Mostly cloudy - 16.7 1014.4 0.0
06/11:30am WNW 21 28 - - - - 10 Partly cloudy - 16.1 1014.9 0.0
06/11:00am WNW 20 26 - - - - 10 Partly cloudy - 15.4 1015.1 0.0
06/10:30am WNW 21 27 - - - - 10 Mostly clear - 15.4 1015.5 0.0
06/10:22am WNW 17 27 - - - - 10 Mostly clear - 15.4 1015.5 0.0
06/10:00am WNW 18 25 - - - - 10 Mostly clear - 14.8 1015.7 0.0
06/09:58am WNW 18 24 - - - - 10 Mostly clear - 14.6 1015.7 0.0
06/09:51am WNW 16 22 - - - - 10 Mostly clear - 14.2 1015.8 0.0
06/09:39am WNW 17 30 - - - - 4 Partly cloudy - 13.8 1016.1 0.0
06/09:30am WNW 17 24 - - - - 10 Partly cloudy - 13.8 1016.0 0.0
06/09:24am WNW 15 20 - - - - 5 Partly cloudy - 14.1 1016.1 0.0
06/09:23am WNW 15 20 - - - - 5 Partly cloudy - 14.1 1016.1 0.0
06/09:02am WNW 19 29 - - - - 10 Partly cloudy - 14.2 1016.3 0.0
06/09:00am WNW 20 29 - - - - 10 Cloudy Rain 14.1 1016.3 0.2
06/08:47am WNW 20 26 - - - - 10 Partly cloudy - 14.7 1016.2 0.2
06/08:30am NW 20 27 - - - - 10 Partly cloudy - 14.3 1016.3 0.2
06/08:16am NW 20 26 - - - - 10 Partly cloudy - 14.7 1016.3 0.0
06/08:00am NW 20 25 - - - - 10 Mostly clear - 15.2 1016.3 0.0
06/07:30am NW 18 24 - - - - 10 Partly cloudy - 14.7 1016.5 0.0
06/07:00am NW 19 25 - - - - 10 Partly cloudy - 14.4 1016.7 0.0
06/06:30am WNW 17 24 - - - - 10 Mostly clear - 14.7 1016.9 0.0
06/06:00am NW 19 23 - - - - 10 Cloudy Recent precip. 14.5 1017.0 0.0
06/05:30am NW 18 25 - - - - 10 Mostly clear - 14.9 1017.0 0.0
06/05:00am NW 19 24 - - - - 10 Mostly clear - 14.7 1017.3 0.0
06/04:30am NW 17 22 - - - - 10 Mostly clear - 14.2 1017.4 0.0
06/04:00am WNW 18 24 - - - - 10 Partly cloudy - 14.8 1017.3 0.0
06/03:30am WNW 18 23 - - - - 10 Mostly clear - 14.5 1017.7 0.0
06/03:00am NW 17 23 - - - - 10 Mostly cloudy - 14.5 1018.0 0.0
06/02:30am NW 17 23 - - - - 10 Cloudy - 14.8 1018.3 0.0
06/02:00am NW 17 22 - - - - 10 Partly cloudy - 14.7 1018.7 0.0
06/01:30am WNW 18 24 - - - - 10 Mostly clear - 14.8 1019.0 0.0
06/01:00am WNW 16 20 - - - - 10 Mostly clear - 14.9 1019.3 0.0
06/12:30am WNW 19 25 - - - - 10 Mostly clear - 14.4 1019.4 0.0
06/12:00am NW 17 22 - - - - 10 Cloudy Rain 14.5 1019.4 0.0
 
Date/Time
EST
Wind Sea
Height
m
Swell Vis
km
Cloud Weather Temp
°C
Press
MSL
hPa
Rain since
9am
mm
Dir  Spd
kts
Gust
kts
Height
m
Period
s
Dir
05/11:30pm NW 18 23 - - - - 10 Mostly clear - 14.5 1019.7 0.0
05/11:00pm WNW 17 24 - - - - 10 Mostly clear - 13.8 1019.9 0.0
05/10:30pm WNW 20 24 - - - - 10 Partly cloudy - 14.8 1019.9 0.0
05/10:00pm NW 15 21 - - - - 10 Mostly clear - 14.8 1020.1 0.0
05/09:30pm WNW 13 16 - - - - 10 Mostly clear - 14.7 1020.3 0.0
05/09:00pm NW 14 19 - - - - 10 Cloudy - 14.5 1020.4 0.0
05/08:30pm WNW 14 18 - - - - 10 Cloudy - 14.5 1020.4 0.0
05/08:00pm WNW 12 17 - - - - 10 Cloudy - 14.4 1020.4 0.0
05/07:30pm NW 12 16 - - - - 10 Cloudy - 14.2 1020.4 0.0
05/07:00pm NW 11 14 - - - - 10 Cloudy - 13.9 1020.3 0.0
05/06:30pm WNW 10 13 - - - - 10 Mostly clear - 13.1 1020.3 0.0
05/06:00pm W 10 13 - - - - 10 Cloudy - 13.1 1020.1 0.0
05/05:30pm WNW 11 14 - - - - 10 Mostly clear - 13.1 1019.9 0.0
05/05:00pm W 11 15 - - - - 10 Partly cloudy - 13.7 1019.6 0.0
05/04:30pm W 13 16 - - - - 10 Partly cloudy - 13.8 1019.4 0.0
05/04:00pm W 13 18 - - - - 10 Partly cloudy - 14.0 1019.3 0.0
05/03:30pm W 13 17 - - - - 10 Mostly clear - 14.2 1019.0 0.0
05/03:00pm W 12 16 - - - - 10 Cloudy - 14.3 1018.7 0.0
05/02:30pm WSW 14 19 - - - - 10 Mostly clear - 14.5 1018.6 0.0
05/02:00pm W 14 18 - - - - 10 Cloudy - 15.1 1018.3 0.0
05/01:30pm W 13 19 - - - - 10 Cloudy - 14.5 1018.2 0.0
05/01:00pm W 13 18 - - - - 10 Cloudy - 14.5 1018.3 0.0
05/12:30pm W 14 20 - - - - 10 Partly cloudy - 14.6 1018.5 0.0
05/12:00pm W 13 17 - - - - 10 Cloudy Showers 13.5 1018.6 0.0
05/11:30am WSW 15 21 - - - - 10 Mostly clear - 14.0 1018.5 0.0
05/11:00am W 15 21 - - - - 10 Partly cloudy - 13.6 1018.4 0.0
05/10:30am WSW 14 20 - - - - 10 Mostly clear - 14.0 1018.1 0.0
05/10:00am WSW 14 19 - - - - 10 Mostly clear - 14.0 1017.7 0.0
05/09:30am WSW 11 15 - - - - 10 Partly cloudy - 13.5 1017.5 0.0
05/09:00am WSW 15 21 - - - - 10 Cloudy Recent precip. 12.9 1017.4 8.2
05/08:30am WSW 17 24 - - - - 10 Mostly clear - 12.3 1017.1 8.2
05/08:25am WSW 17 24 - - - - 10 Mostly clear - 12.1 1017.1 8.2
05/08:18am WSW 15 20 - - - - 10 Partly cloudy - 12.2 1016.9 8.2
05/08:08am WSW 15 22 - - - - 5 Partly cloudy - 11.9 1016.8 8.2
05/08:00am SW 15 23 - - - - 10 Partly cloudy - 12.0 1016.7 8.2
05/07:59am SW 15 23 - - - - 10 Partly cloudy - 12.0 1016.7 8.2
05/07:58am SW 16 23 - - - - 10 Partly cloudy - 12.0 1016.7 8.2
05/07:43am SW 16 23 - - - - 5 Partly cloudy - 12.0 1016.4 8.0
05/07:39am SW 16 23 - - - - 10 Partly cloudy - 12.1 1016.3 8.0
05/07:30am WSW 14 19 - - - - 10 Partly cloudy - 12.2 1016.1 7.8
05/07:29am WSW 14 19 - - - - 10 Partly cloudy - 12.2 1016.1 7.8
05/07:18am SW 14 19 - - - - 5 Partly cloudy - 12.0 1015.8 7.8
05/07:00am WSW 15 21 - - - - 10 Partly cloudy - 12.7 1015.5 7.6
05/06:30am SW 13 20 - - - - 10 Partly cloudy - 12.9 1014.8 7.6
05/06:00am WSW 15 21 - - - - 10 Cloudy Recent precip. 12.5 1014.4 7.6
05/05:30am WSW 16 21 - - - - 10 Mostly clear - 13.2 1014.0 7.6
05/05:00am WSW 16 21 - - - - 10 Partly cloudy - 13.3 1013.4 7.6
05/04:30am WSW 16 24 - - - - 10 Partly cloudy - 13.3 1012.9 7.6
05/04:00am SW 16 22 - - - - 10 - - 12.9 1012.6 7.6
05/03:30am WSW 17 23 - - - - 10 Partly cloudy - 13.4 1012.1 7.6
05/03:00am SW 16 26 - - - - 10 Cloudy - 13.4 1012.0 7.6
05/02:30am WSW 17 23 - - - - 10 Partly cloudy - 13.6 1011.6 7.6
05/02:00am WSW 18 27 - - - - 10 Partly cloudy - 13.5 1011.3 7.6
05/01:47am WSW 20 28 - - - - 10 Partly cloudy - 13.6 1011.0 7.6
05/01:30am WSW 19 28 - - - - 10 Partly cloudy - 13.9 1010.5 7.6
05/01:25am WSW 19 28 - - - - 10 Partly cloudy - 13.8 1010.5 7.6
05/01:12am WSW 19 29 - - - - 10 Partly cloudy - 13.7 1010.3 7.6
05/01:04am WSW 22 30 - - - - 10 Partly cloudy - 13.7 1010.1 7.6
05/01:03am WSW 21 30 - - - - 10 Partly cloudy - 13.7 1010.0 7.6
05/01:00am WSW 20 30 - - - - 10 Partly cloudy - 13.8 1010.0 7.6
05/12:58am SW 20 30 - - - - 10 Partly cloudy - 13.9 1010.0 7.6
05/12:52am SW 19 25 - - - - 10 Partly cloudy - 13.7 1009.9 7.6
05/12:48am WSW 18 24 - - - - 10 Partly cloudy - 14.0 1009.8 7.6
05/12:38am WSW 20 29 - - - - 5 Mostly clear - 13.9 1009.6 7.6
05/12:30am SW 21 29 - - - - 10 Partly cloudy - 14.2 1009.5 7.4
05/12:00am WSW 20 27 - - - - 10 Cloudy Recent precip. 14.5 1008.9 7.4
 
Date/Time
EST
Wind Sea
Height
m
Swell Vis
km
Cloud Weather Temp
°C
Press
MSL
hPa
Rain since
9am
mm
Dir  Spd
kts
Gust
kts
Height
m
Period
s
Dir
04/11:30pm SW 19 29 - - - - 10 Partly cloudy - 14.6 1008.3 7.4
04/11:26pm SW 19 29 - - - - 10 Partly cloudy - 14.6 1008.2 7.4
04/11:00pm SW 17 23 - - - - 10 Partly cloudy - 14.7 1007.7 7.4
04/10:36pm WSW 18 28 - - - - 10 Partly cloudy - 14.5 1007.3 7.4
04/10:30pm WSW 20 28 - - - - 10 Partly cloudy - 14.4 1007.1 7.4
04/10:14pm SW 20 30 - - - - 10 Cloudy - 14.6 1006.6 7.4
04/10:00pm WSW 20 30 - - - - 4 Partly cloudy - 14.7 1006.0 7.2
04/09:55pm WSW 20 30 - - - - 5 Partly cloudy - 14.6 1005.8 7.0
04/09:30pm WSW 19 30 - - - - 10 Partly cloudy - 14.7 1005.1 6.2
04/09:25pm WSW 19 30 - - - - 10 Partly cloudy - 14.6 1004.8 6.2
04/09:00pm WSW 20 27 - - - - 10 Cloudy - 14.7 1003.7 6.2
04/08:30pm W 19 28 - - - - 10 Cloudy - 14.9 1002.5 6.2
04/08:14pm W 21 32 - - - - 10 Cloudy - 15.0 1002.0 6.2
04/08:11pm WNW 20 28 - - - - 10 Cloudy - 15.0 1002.0 6.2
04/08:07pm WNW 21 29 - - - - 10 Cloudy - 14.9 1002.0 6.2
04/08:00pm NW 23 29 - - - - 5 Partly cloudy - 14.9 1001.7 6.2
04/07:56pm NW 24 32 - - - - 5 Partly cloudy - 14.7 1001.9 6.2
04/07:30pm NW 23 31 - - - - 10 Partly cloudy - 14.7 1002.2 5.2
04/07:23pm NW 25 34 - - - - 6 Partly cloudy - 14.7 1002.1 5.2
04/07:03pm NNW 21 29 - - - - 5 Partly cloudy - 14.5 1002.4 4.6
04/07:00pm NNW 20 27 - - - - 7 Partly cloudy - 14.5 1002.4 4.2
04/06:32pm N 20 27 - - - - 10 Partly cloudy - 13.9 1002.7 4.0
04/06:30pm N 21 32 - - - - 10 Partly cloudy - 14.0 1002.8 3.8
04/06:07pm N 22 32 - - - - 5 Partly cloudy - 13.9 1002.9 3.4
04/06:00pm N 21 32 - - - - 8 Cloudy Showers 14.0 1003.0 3.0
04/05:44pm N 20 30 - - - - 10 Partly cloudy - 14.4 1003.4 2.6
04/05:30pm N 19 26 - - - - 10 Cloudy - 14.3 1003.6 2.4
04/05:27pm N 20 26 - - - - 10 Partly cloudy - 14.3 1003.6 2.4
04/05:26pm N 20 26 - - - - 10 Partly cloudy - 14.2 1003.6 2.4
04/05:08pm N 17 25 - - - - 5 Mostly clear - 13.9 1003.7 2.4
04/05:00pm N 17 25 - - - - 10 Partly cloudy - 14.3 1003.7 0.8
04/04:30pm N 14 19 - - - - 10 Partly cloudy - 14.4 1004.1 0.4
04/04:04pm N 15 26 - - - - 10 Mostly clear - 14.2 1004.4 0.2
04/04:00pm N 15 22 - - - - 10 Mostly clear - 14.4 1004.3 0.2
04/03:30pm N 18 23 - - - - 10 Partly cloudy - 15.7 1004.3 0.0
04/03:00pm N 19 23 - - - - 10 Cloudy - 16.3 1004.6 0.0
04/02:30pm N 14 21 - - - - 10 Partly cloudy - 16.3 1005.0 0.0
04/02:00pm N 13 19 - - - - 10 Partly cloudy - 15.5 1005.3 0.0
04/01:30pm NNE 14 19 - - - - 10 Partly cloudy - 14.8 1005.6 0.0
04/01:00pm N 16 22 - - - - 10 Partly cloudy - 15.0 1005.9 0.0
04/12:30pm N 18 26 - - - - 10 Partly cloudy - 15.4 1006.2 0.0
04/12:20pm N 15 26 - - - - 10 Partly cloudy - 15.3 1006.4 0.0
04/12:00pm N 15 21 - - - - 10 Cloudy - 15.6 1006.8 0.0
04/11:30am N 15 21 - - - - 10 Cloudy - 15.3 1007.1 0.0
04/11:00am N 18 24 - - - - 10 Cloudy - 15.2 1007.1 0.0
04/10:30am N 18 23 - - - - 10 Partly cloudy - 16.2 1007.0 0.0
04/10:00am N 19 25 - - - - 10 Partly cloudy - 16.4 1007.0 0.0
04/09:30am N 17 23 - - - - 10 - - 15.5 1007.2 0.0
04/09:00am NNE 14 17 - - - - 10 - - 15.2 1007.3 2.6
04/08:30am NNE 12 15 - - - - 10 - - 14.4 1007.4 2.6
04/08:00am NNE 11 14 - - - - 10 - - 13.5 1007.5 2.6
04/07:30am NNE 11 14 - - - - 10 - - 12.7 1007.3 2.6
04/07:00am NNE 10 13 - - - - 10 Mostly clear - 12.4 1007.4 2.6
04/06:30am NE 8 9 - - - - 10 - - 11.6 1007.6 2.6
04/06:00am NNE 11 14 - - - - 10 Mostly clear - 12.7 1007.8 2.6
04/05:30am NE 9 12 - - - - 10 Partly cloudy - 12.6 1007.8 2.6
04/05:00am NNE 10 15 - - - - 10 Mostly clear - 13.6 1008.1 2.6
04/04:30am NE 8 10 - - - - 10 Partly cloudy - 11.6 1008.2 2.6
04/04:00am NE 7 9 - - - - 10 - - 11.2 1008.4 2.6
04/03:30am NE 8 9 - - - - 10 - - 11.6 1008.5 2.6
04/03:00am NNE 9 12 - - - - 10 - - 12.6 1008.8 2.6
04/02:30am NNE 9 11 - - - - 10 - - 13.1 1009.0 2.6
04/02:00am N 8 13 - - - - 10 - - 12.7 1009.2 2.6
04/01:30am N 11 17 - - - - 10 - - 14.2 1009.2 2.6
04/01:00am N 11 18 - - - - 10 - - 14.4 1009.1 2.6
04/12:30am N 12 17 - - - - 10 - - 14.1 1009.1 2.6
04/12:00am NNW 15 20 - - - - 10 Cloudy - 15.1 1009.2 2.6
 
Date/Time
EST
Wind Sea
Height
m
Swell Vis
km
Cloud Weather Temp
°C
Press
MSL
hPa
Rain since
9am
mm
Dir  Spd
kts
Gust
kts
Height
m
Period
s
Dir
03/11:30pm N 10 14 - - - - 10 - - 14.2 1009.4 2.6
03/11:00pm NNE 8 11 - - - - 10 - - 13.1 1009.7 2.6
03/10:30pm N 9 11 - - - - 10 - - 13.2 1010.0 2.6
03/10:00pm NE 7 9 - - - - 10 Mostly clear - 12.4 1010.2 2.6
03/09:30pm NNE 7 8 - - - - 10 - - 11.9 1010.2 2.6
03/09:00pm NE 7 10 - - - - 10 - - 12.2 1010.3 2.6
03/08:30pm ENE 6 7 - - - - 10 - - 11.0 1010.1 2.6
03/08:00pm NNE 5 6 - - - - 10 - - 11.4 1009.8 2.6

Other formats

Comma delimited format used in spreadsheet applications
http://www.bom.gov.au/fwo/IDT60701/IDT60701.94850.axf

JavaScript Object Notation format (JSON) in row-major order
http://www.bom.gov.au/fwo/IDT60701/IDT60701.94850.json

Data quality

Most of these data are generated automatically and are frequently updated. Quality checks on data are not normally performed. It is possible for incorrect values to appear. Refer to information at About Latest Weather Observations and please check the disclaimer before using these data.